Apollo, Pennsylvania
Current Conditions -  °F | °C
As of 8:35 AM on Friday 24 Oct 2014 (Local Time) from KBTP Reporting Station
Overcast Overcast  
Wind Chill: 41°   Ceiling: 300
Heat Index: 41°   Visibility: 2.5mi
Dew Point: 39°   Wind: 0mph
Humidity: 93%   Direction: NA
Pressure: 30.11"   Gusts: NA
Location:  40.58°N, 79.57°W
Report Text: KBTP 241235Z AUTO 00000KT 2 1/2SM BKN003 OVC010 05/04 A3011 RMK AO1
Loading
Personal Weather Stations






























Interactive Weather Map
Tropical Storm Tracking
New forecast layout! Learn more

10-Day Weather Forecast

Advertisements
Track Severe Weather on mobile